Time;durP1;ratioP1;P1;durP2;ratioP2;P2;SDS_P1;SDS_P2;PMS_P1;PMS_P2;Temp;Humidity;BMP_temperature;BMP_pressure;BME280_temperature;BME280_humidity;BME280_pressure;Samples;Min_cycle;Max_cycle;Signal;HPM_P1;HPM_P2
2023/05/07 00:01:48;;;;;;;4.47;3.60;;;;;;;21.91;42.20;101798.97;4982358;28;20093;-79
2023/05/07 00:04:14;;;;;;;4.72;3.65;;;;;;;21.95;42.33;101812.69;4998227;28;20042;-79
2023/05/07 00:06:39;;;;;;;5.53;4.00;;;;;;;21.88;42.16;101799.28;4967557;28;20071;-79
2023/05/07 00:09:05;;;;;;;6.18;4.05;;;;;;;21.89;42.25;101802.75;4980886;28;20034;-79
2023/05/07 00:11:31;;;;;;;4.80;3.85;;;;;;;21.96;42.11;101819.66;4985053;28;20705;-79
2023/05/07 00:13:57;;;;;;;5.80;3.85;;;;;;;21.93;42.29;101817.34;4996824;28;20062;-79
2023/05/07 00:16:22;;;;;;;4.70;3.92;;;;;;;21.92;42.34;101810.41;4981647;28;20138;-80
2023/05/07 00:18:48;;;;;;;5.95;4.40;;;;;;;21.97;42.36;101819.50;4981735;28;20054;-79
2023/05/07 00:21:14;;;;;;;4.90;4.22;;;;;;;21.94;41.94;101813.69;4965484;28;20042;-79
2023/05/07 00:23:39;;;;;;;4.82;3.95;;;;;;;21.96;42.21;101828.44;4979790;28;20149;-79
2023/05/07 00:26:05;;;;;;;5.55;4.03;;;;;;;21.90;42.40;101823.81;4963728;28;20037;-79
2023/05/07 00:28:30;;;;;;;5.30;4.03;;;;;;;21.87;42.45;101823.31;4997809;28;20045;-79
2023/05/07 00:30:56;;;;;;;4.53;3.78;;;;;;;21.93;42.25;101834.09;4997767;28;20086;-79
2023/05/07 00:33:22;;;;;;;5.93;4.20;;;;;;;21.90;42.21;101826.47;5012771;28;20048;-79
2023/05/07 00:35:48;;;;;;;4.70;3.78;;;;;;;21.80;42.35;101809.91;4997633;28;20118;-79
2023/05/07 00:38:14;;;;;;;5.10;4.13;;;;;;;21.93;42.13;101827.97;4978330;28;20042;-79
2023/05/07 00:40:39;;;;;;;5.82;4.03;;;;;;;21.87;42.37;101825.97;4985994;28;21831;-78
2023/05/07 00:43:05;;;;;;;4.85;4.00;;;;;;;21.78;42.04;101813.72;5000701;28;20048;-79
2023/05/07 00:45:30;;;;;;;5.90;4.07;;;;;;;21.85;42.14;101826.13;5017549;28;20041;-79
2023/05/07 00:47:58;;;;;;;4.72;3.60;;;;;;;21.74;42.06;101805.28;5018815;28;20041;-79
2023/05/07 00:50:25;;;;;;;6.50;4.82;;;;;;;21.83;42.47;101832.59;4999753;28;20144;-79
2023/05/07 00:52:51;;;;;;;4.63;4.10;;;;;;;21.80;42.18;101825.81;4985083;28;20057;-79
2023/05/07 00:55:17;;;;;;;5.47;4.28;;;;;;;21.76;42.19;101815.72;5003124;28;20034;-79
2023/05/07 00:57:44;;;;;;;6.07;4.60;;;;;;;21.73;42.37;101821.38;5017218;28;20046;-79
2023/05/07 01:00:11;;;;;;;6.57;4.35;;;;;;;21.82;42.10;101838.91;5004009;28;20038;-79
2023/05/07 01:02:40;;;;;;;5.30;4.10;;;;;;;21.79;42.30;101826.00;5003982;28;20045;-79
2023/05/07 01:05:09;;;;;;;5.40;4.13;;;;;;;21.86;42.26;101842.88;5002689;28;20038;-79
2023/05/07 01:07:36;;;;;;;5.83;4.40;;;;;;;21.70;42.30;101833.94;5032202;28;20593;-79
2023/05/07 01:10:03;;;;;;;9.25;5.43;;;;;;;21.68;42.49;101827.97;5000260;28;20477;-79
2023/05/07 01:12:30;;;;;;;5.50;3.95;;;;;;;21.68;42.17;101820.03;5029336;28;20041;-79
2023/05/07 01:14:56;;;;;;;4.93;4.03;;;;;;;21.81;42.27;101832.78;4998677;28;20038;-79
2023/05/07 01:17:22;;;;;;;5.18;4.15;;;;;;;21.78;42.47;101835.78;5014552;28;20033;-79
2023/05/07 01:19:48;;;;;;;4.93;4.22;;;;;;;21.77;42.31;101831.47;5014596;28;20033;-80
2023/05/07 01:22:20;;;;;;;6.03;4.35;;;;;;;21.77;42.15;101833.28;4982983;28;20064;-79
2023/05/07 01:24:49;;;;;;;4.85;4.00;;;;;;;21.68;42.16;101827.16;5035440;28;20171;-80
2023/05/07 01:27:15;;;;;;;7.43;4.50;;;;;;;21.75;42.31;101840.59;5006315;28;20045;-80
2023/05/07 01:29:41;;;;;;;5.20;4.28;;;;;;;21.56;42.09;101810.78;5021429;28;20030;-79
2023/05/07 01:32:07;;;;;;;4.80;4.15;;;;;;;21.69;42.21;101823.50;5006081;28;20041;-79
2023/05/07 01:34:36;;;;;;;5.55;4.22;;;;;;;21.70;42.20;101835.75;5022718;28;20411;-79
2023/05/07 01:37:02;;;;;;;5.90;4.00;;;;;;;21.74;42.08;101828.34;5000381;28;20092;-79
2023/05/07 01:39:29;;;;;;;6.88;4.82;;;;;;;21.70;42.01;101820.69;5019434;28;20037;-79
2023/05/07 01:41:56;;;;;;;6.38;4.45;;;;;;;21.63;42.25;101816.25;5005109;28;20066;-78
2023/05/07 01:44:24;;;;;;;7.20;4.05;;;;;;;21.72;42.19;101828.47;4983425;28;20090;-78
2023/05/07 01:46:50;;;;;;;4.70;4.20;;;;;;;21.66;41.97;101822.03;4983977;28;20591;-79
2023/05/07 01:49:16;;;;;;;5.43;4.68;;;;;;;21.62;42.10;101819.88;4985557;28;20046;-79
2023/05/07 01:51:43;;;;;;;5.45;4.32;;;;;;;21.70;42.10;101826.00;4998191;28;20045;-79
2023/05/07 01:54:08;;;;;;;4.85;4.03;;;;;;;21.61;42.22;101815.59;4969611;28;20054;-79
2023/05/07 01:56:35;;;;;;;5.28;4.35;;;;;;;21.71;42.10;101834.78;4986821;28;20042;-79
2023/05/07 01:59:01;;;;;;;4.90;4.35;;;;;;;21.68;42.09;101825.34;4985907;28;20118;-79
2023/05/07 02:01:28;;;;;;;5.78;4.40;;;;;;;21.58;42.25;101806.16;4985790;28;20042;-79
2023/05/07 02:03:53;;;;;;;6.57;4.70;;;;;;;21.51;42.29;101796.38;4990684;28;20037;-80
2023/05/07 02:06:23;;;;;;;5.45;4.20;;;;;;;21.60;42.13;101809.44;4997627;28;20392;-79
2023/05/07 02:08:52;;;;;;;6.15;4.35;;;;;;;21.59;42.30;101817.56;4997535;28;20137;-79
2023/05/07 02:11:17;;;;;;;7.72;4.97;;;;;;;21.67;42.11;101826.31;4971614;28;20102;-80
2023/05/07 02:13:43;;;;;;;5.10;4.32;;;;;;;21.56;42.27;101816.09;4999444;28;20092;-79
2023/05/07 02:16:10;;;;;;;5.78;4.78;;;;;;;21.54;42.43;101807.44;4982781;28;20042;-79
2023/05/07 02:18:37;;;;;;;6.53;4.55;;;;;;;21.50;42.25;101794.72;4982917;28;20026;-79
2023/05/07 02:21:03;;;;;;;4.55;4.15;;;;;;;21.47;42.10;101790.56;4986819;28;20030;-79
2023/05/07 02:23:29;;;;;;;5.90;4.55;;;;;;;21.46;42.26;101804.81;4987080;28;20030;-80
2023/05/07 02:25:55;;;;;;;6.40;4.38;;;;;;;21.54;41.97;101810.09;4980884;28;20051;-79
2023/05/07 02:28:20;;;;;;;6.30;4.63;;;;;;;21.59;42.22;101836.13;4988390;28;20122;-79
2023/05/07 02:30:54;;;;;;;5.82;4.47;;;;;;;21.56;42.16;101818.75;4987440;28;20058;-79
2023/05/07 02:33:20;;;;;;;6.43;4.80;;;;;;;21.50;42.39;101807.97;4986150;28;20086;-79
2023/05/07 02:35:46;;;;;;;7.05;4.43;;;;;;;21.54;41.96;101815.41;4984001;28;20038;-79
2023/05/07 02:38:14;;;;;;;5.72;4.63;;;;;;;21.46;42.34;101807.47;4970296;28;20129;-79
2023/05/07 02:40:40;;;;;;;5.95;4.70;;;;;;;21.58;42.17;101834.47;4982291;28;20047;-79
2023/05/07 02:43:06;;;;;;;6.65;4.68;;;;;;;21.47;42.34;101819.72;4964798;28;20042;-79
2023/05/07 02:45:32;;;;;;;5.40;4.82;;;;;;;21.55;42.06;101854.19;4966686;28;20034;-79
2023/05/07 02:47:59;;;;;;;6.40;5.00;;;;;;;21.53;42.27;101842.06;4982015;28;20050;-80
2023/05/07 02:50:25;;;;;;;5.80;4.60;;;;;;;21.41;42.02;101820.41;4995698;28;20069;-79
2023/05/07 02:52:51;;;;;;;8.40;4.97;;;;;;;21.47;42.02;101835.63;4985303;28;20034;-79
2023/05/07 02:55:17;;;;;;;6.15;4.85;;;;;;;21.45;42.23;101824.38;4965630;28;20038;-79
2023/05/07 02:57:42;;;;;;;6.65;4.65;;;;;;;21.55;42.14;101842.75;4981527;28;20069;-79
2023/05/07 03:00:18;;;;;;;6.35;4.60;;;;;;;21.49;42.21;101832.81;4998262;28;20050;-79
2023/05/07 03:03:14;;;;;;;7.32;5.22;;;;;;;21.54;42.27;101831.31;4994616;28;20046;-79
2023/05/07 03:05:39;;;;;;;6.80;5.18;;;;;;;21.43;41.92;101818.41;4994038;28;20074;-79
2023/05/07 03:08:05;;;;;;;5.80;4.70;;;;;;;21.42;42.13;101816.75;5002371;28;20038;-80
2023/05/07 03:10:31;;;;;;;7.15;5.30;;;;;;;21.51;42.04;101836.13;4965321;28;20046;-79
2023/05/07 03:12:56;;;;;;;6.60;5.30;;;;;;;21.44;41.98;101808.63;5015183;28;20050;-79
2023/05/07 03:15:22;;;;;;;7.10;5.43;;;;;;;21.42;42.07;101822.88;4999123;28;20042;-79
2023/05/07 03:17:48;;;;;;;6.47;4.90;;;;;;;21.54;42.08;101836.59;4999206;28;20035;-79
2023/05/07 03:20:14;;;;;;;6.72;5.22;;;;;;;21.45;42.09;101826.19;4982563;28;20045;-79
2023/05/07 03:22:40;;;;;;;6.22;4.95;;;;;;;21.42;42.34;101825.53;4986385;28;20152;-79
2023/05/07 03:25:07;;;;;;;6.47;5.03;;;;;;;21.40;42.21;101821.41;4966587;28;20077;-80
2023/05/07 03:27:32;;;;;;;6.63;5.20;;;;;;;21.36;42.13;101809.44;4984689;28;20866;-79
2023/05/07 03:30:00;;;;;;;7.40;5.20;;;;;;;21.32;42.09;101792.25;5000492;28;20038;-79
2023/05/07 03:32:25;;;;;;;6.85;5.10;;;;;;;21.35;42.10;101797.19;4984290;28;20030;-79
2023/05/07 03:34:51;;;;;;;8.13;5.13;;;;;;;21.43;42.37;101821.06;4997031;28;20106;-79
2023/05/07 03:37:17;;;;;;;6.45;4.95;;;;;;;21.40;42.17;101829.34;4975334;28;20030;-78
2023/05/07 03:39:43;;;;;;;6.72;5.20;;;;;;;21.45;42.24;101828.84;4985733;28;20026;-79
2023/05/07 03:42:09;;;;;;;7.75;5.50;;;;;;;21.35;42.02;101813.91;5000060;28;20567;-79
2023/05/07 03:44:36;;;;;;;7.43;5.35;;;;;;;21.34;41.94;101808.78;5008921;28;20091;-79
2023/05/07 03:47:03;;;;;;;6.00;4.72;;;;;;;21.31;42.33;101809.13;5008678;28;20038;-78
2023/05/07 03:49:28;;;;;;;7.95;5.40;;;;;;;21.41;42.07;101829.19;5002665;28;20038;-78
2023/05/07 03:51:55;;;;;;;6.60;5.28;;;;;;;21.38;42.25;101828.69;5000334;28;20037;-78
2023/05/07 03:54:21;;;;;;;7.13;5.53;;;;;;;21.39;42.21;101822.41;5010941;28;20038;-78
2023/05/07 03:56:46;;;;;;;8.48;5.47;;;;;;;21.44;42.02;101822.72;4987185;28;20069;-78
2023/05/07 03:59:13;;;;;;;7.78;5.50;;;;;;;21.41;41.93;101836.31;4952136;28;20038;-78
2023/05/07 04:01:39;;;;;;;8.32;6.50;;;;;;;21.39;42.22;101841.78;4999500;28;20101;-78
2023/05/07 04:04:05;;;;;;;7.38;5.43;;;;;;;21.39;42.05;101833.00;5017082;28;20121;-78
2023/05/07 04:06:32;;;;;;;6.35;5.43;;;;;;;21.36;42.01;101836.81;5004713;28;20113;-78
2023/05/07 04:08:58;;;;;;;9.55;6.22;;;;;;;21.37;42.06;101840.28;5002970;28;20113;-79
2023/05/07 04:11:23;;;;;;;8.38;5.78;;;;;;;21.38;42.19;101848.06;5004170;28;20046;-78
2023/05/07 04:13:49;;;;;;;7.35;5.18;;;;;;;21.33;42.26;101853.00;5002092;28;20057;-78
2023/05/07 04:16:19;;;;;;;6.97;5.47;;;;;;;21.38;41.97;101860.47;4999452;28;20037;-79
2023/05/07 04:18:45;;;;;;;6.85;5.28;;;;;;;21.36;42.22;101858.00;5000570;28;20042;-78
2023/05/07 04:21:19;;;;;;;8.15;5.32;;;;;;;21.35;42.40;101861.63;5017729;28;20038;-79
2023/05/07 04:23:46;;;;;;;8.95;5.95;;;;;;;21.30;42.20;101852.50;5017240;28;20041;-79
2023/05/07 04:26:13;;;;;;;6.75;5.25;;;;;;;21.29;42.03;101851.69;5003932;28;20057;-79
2023/05/07 04:28:41;;;;;;;8.85;5.13;;;;;;;21.26;42.10;101844.06;5013282;28;20440;-79
2023/05/07 04:31:07;;;;;;;6.95;5.43;;;;;;;21.37;42.22;101864.13;5003272;28;20472;-78
2023/05/07 04:33:35;;;;;;;7.85;5.60;;;;;;;21.31;41.91;101843.56;5001127;28;20049;-78
2023/05/07 04:36:03;;;;;;;6.68;5.05;;;;;;;21.33;42.18;101863.59;5017481;28;21371;-78
2023/05/07 04:38:31;;;;;;;7.93;5.90;;;;;;;21.33;42.27;101858.31;5001330;28;20084;-79
2023/05/07 04:41:09;;;;;;;7.97;5.20;;;;;;;21.33;41.79;101868.91;4992273;28;20042;-79
2023/05/07 04:43:38;;;;;;;6.70;5.47;;;;;;;21.18;41.89;101849.31;4992035;28;20350;-78
2023/05/07 04:46:04;;;;;;;7.38;5.55;;;;;;;21.24;41.99;101859.31;4997940;28;20034;-78
2023/05/07 04:48:30;;;;;;;7.10;5.47;;;;;;;21.26;41.86;101861.78;4979691;28;20035;-78
2023/05/07 04:50:57;;;;;;;6.10;5.03;;;;;;;21.33;42.27;101868.06;4976817;28;20073;-78
2023/05/07 04:53:23;;;;;;;7.72;5.78;;;;;;;21.34;42.03;101869.72;4980269;28;20038;-78
2023/05/07 04:55:57;;;;;;;7.05;5.40;;;;;;;21.28;42.15;101859.81;4998818;28;20038;-79
2023/05/07 04:58:25;;;;;;;6.63;5.05;;;;;;;21.23;41.91;101857.63;4993822;28;20026;-79
2023/05/07 05:00:52;;;;;;;9.40;5.65;;;;;;;21.25;42.02;101860.13;4978116;28;20038;-78
2023/05/07 05:03:17;;;;;;;7.55;5.50;;;;;;;21.24;42.07;101861.94;5001181;28;20056;-79
2023/05/07 05:05:44;;;;;;;7.13;5.63;;;;;;;21.25;41.94;101855.66;4966172;28;20053;-78
2023/05/07 05:08:10;;;;;;;6.30;4.75;;;;;;;21.09;42.05;101837.06;4993814;28;20030;-79
2023/05/07 05:10:38;;;;;;;7.18;4.75;;;;;;;21.24;42.20;101867.25;4963446;28;20042;-79
2023/05/07 05:13:05;;;;;;;6.60;4.88;;;;;;;21.27;41.81;101877.50;4963462;28;20076;-79
2023/05/07 05:15:31;;;;;;;7.55;5.43;;;;;;;21.06;42.02;101843.53;4984541;28;20034;-79
2023/05/07 05:17:56;;;;;;;6.82;5.05;;;;;;;21.12;41.91;101852.63;4977265;28;20042;-79
2023/05/07 05:20:22;;;;;;;6.78;4.80;;;;;;;21.01;42.18;101839.72;4965977;28;20037;-78
2023/05/07 05:22:48;;;;;;;6.50;4.95;;;;;;;21.22;41.94;101871.84;4996766;28;20057;-78
2023/05/07 05:25:14;;;;;;;5.93;4.72;;;;;;;21.24;42.08;101884.94;4993042;28;20050;-78
2023/05/07 05:27:39;;;;;;;6.88;4.93;;;;;;;21.17;42.44;101894.50;4984704;28;20039;-78
2023/05/07 05:30:05;;;;;;;5.90;5.28;;;;;;;21.25;42.17;101900.69;4997893;28;20038;-78
2023/05/07 05:32:32;;;;;;;6.40;5.15;;;;;;;21.26;42.08;101902.34;4961689;28;20029;-78
2023/05/07 05:34:58;;;;;;;6.65;4.55;;;;;;;21.18;42.17;101896.16;4981837;28;20971;-78
2023/05/07 05:37:25;;;;;;;5.80;4.72;;;;;;;21.01;42.00;101863.56;4966943;28;20030;-77
2023/05/07 05:39:50;;;;;;;6.78;4.93;;;;;;;21.06;41.99;101882.41;4980179;28;20056;-79
2023/05/07 05:42:16;;;;;;;6.15;4.68;;;;;;;21.16;42.22;101898.16;4978350;28;20505;-79
2023/05/07 05:44:43;;;;;;;6.32;5.15;;;;;;;21.11;42.10;101890.69;4965891;28;20041;-79
2023/05/07 05:47:08;;;;;;;6.68;4.80;;;;;;;21.12;42.17;101890.53;4977768;28;20401;-78
2023/05/07 05:49:34;;;;;;;6.25;5.10;;;;;;;21.10;42.23;101894.34;4978975;28;20133;-78
2023/05/07 05:52:03;;;;;;;6.90;4.57;;;;;;;21.11;42.13;101886.22;4982836;28;20092;-78
2023/05/07 05:54:28;;;;;;;5.80;4.50;;;;;;;21.10;42.26;101886.41;4984891;28;20094;-78
2023/05/07 05:56:54;;;;;;;7.60;5.18;;;;;;;21.23;41.75;101901.81;4983312;28;20038;-78
2023/05/07 05:59:20;;;;;;;6.57;4.95;;;;;;;21.13;42.07;101896.66;5010548;28;20098;-78
2023/05/07 06:01:46;;;;;;;6.20;4.95;;;;;;;21.21;41.96;101899.34;4980172;28;20030;-79
2023/05/07 06:04:12;;;;;;;7.22;4.90;;;;;;;21.15;41.83;101885.91;4985044;28;20470;-79
2023/05/07 06:06:38;;;;;;;5.60;4.68;;;;;;;21.20;41.93;101900.34;4967237;28;20030;-78
2023/05/07 06:09:04;;;;;;;6.18;4.70;;;;;;;21.16;41.91;101882.25;5002469;28;20042;-78
2023/05/07 06:11:36;;;;;;;7.88;4.95;;;;;;;21.14;42.04;101890.38;5011240;28;20106;-78
2023/05/07 06:14:02;;;;;;;6.95;5.50;;;;;;;21.04;41.92;101881.75;4984593;28;20046;-78
2023/05/07 06:16:29;;;;;;;5.78;4.75;;;;;;;20.99;41.75;101871.63;4968529;28;20094;-79
2023/05/07 06:18:56;;;;;;;5.65;4.65;;;;;;;20.97;42.04;101863.03;4981456;28;20040;-78
2023/05/07 06:21:22;;;;;;;5.85;4.10;;;;;;;20.97;41.83;101878.91;4983669;28;20030;-78
2023/05/07 06:23:47;;;;;;;5.93;4.82;;;;;;;21.10;42.08;101894.34;5000579;28;20074;-78
2023/05/07 06:26:13;;;;;;;6.78;4.65;;;;;;;21.15;41.86;101915.03;4969904;28;20042;-79
2023/05/07 06:28:42;;;;;;;6.43;4.80;;;;;;;21.13;41.83;101912.56;4981978;28;20124;-78
2023/05/07 06:31:14;;;;;;;6.65;4.97;;;;;;;21.17;41.79;101918.34;4982870;28;20932;-78
2023/05/07 06:33:42;;;;;;;6.00;4.45;;;;;;;21.13;41.92;101910.72;4999865;28;20415;-78
2023/05/07 06:36:08;;;;;;;6.30;4.40;;;;;;;21.09;42.07;101900.63;5006622;28;20061;-78
2023/05/07 06:38:34;;;;;;;5.88;4.72;;;;;;;21.13;41.86;101917.84;4984423;28;20034;-78
2023/05/07 06:41:00;;;;;;;5.80;4.30;;;;;;;21.06;41.98;101903.59;4988549;28;20109;-78
2023/05/07 06:43:25;;;;;;;5.97;4.75;;;;;;;21.06;41.94;101899.13;4981067;28;20038;-78
2023/05/07 06:46:01;;;;;;;5.93;4.75;;;;;;;21.06;42.11;101901.78;5001301;28;20435;-78
2023/05/07 06:48:27;;;;;;;6.32;5.15;;;;;;;21.16;42.13;101919.34;4967398;28;20065;-78
2023/05/07 06:50:59;;;;;;;6.45;4.50;;;;;;;21.30;41.57;101922.22;4984240;28;20138;-78
2023/05/07 06:53:26;;;;;;;6.57;4.88;;;;;;;21.36;41.36;101923.38;4998868;28;20045;-78
2023/05/07 06:55:55;;;;;;;5.97;4.32;;;;;;;21.33;41.58;101905.16;4980813;28;20038;-78
2023/05/07 06:58:20;;;;;;;5.35;4.60;;;;;;;21.34;41.57;101920.91;4985230;28;20046;-78
2023/05/07 07:00:47;;;;;;;5.13;4.18;;;;;;;21.44;41.51;101934.00;4982299;28;20113;-77
2023/05/07 07:03:13;;;;;;;5.32;4.43;;;;;;;21.45;41.43;101932.19;4981261;28;20104;-78
2023/05/07 07:05:41;;;;;;;6.32;4.70;;;;;;;21.44;41.31;101938.47;4981296;28;20041;-79
2023/05/07 07:08:06;;;;;;;6.38;4.13;;;;;;;21.41;41.48;101935.16;4998811;28;20053;-78
2023/05/07 07:10:32;;;;;;;5.85;4.30;;;;;;;21.40;41.20;101930.88;4997385;28;20041;-78
2023/05/07 07:12:59;;;;;;;7.63;4.40;;;;;;;21.36;41.27;101926.88;4987924;28;20042;-77
2023/05/07 07:15:26;;;;;;;5.93;4.60;;;;;;;21.42;41.85;101946.59;4995613;28;20459;-77
2023/05/07 07:17:53;;;;;;;5.43;4.25;;;;;;;21.42;41.28;101939.47;4996505;28;20453;-78
2023/05/07 07:20:19;;;;;;;6.00;4.07;;;;;;;21.40;41.37;101944.13;4985746;28;20039;-77
2023/05/07 07:22:45;;;;;;;5.47;4.10;;;;;;;21.46;41.45;101949.75;4984331;28;21327;-78
2023/05/07 07:25:12;;;;;;;4.80;4.00;;;;;;;21.45;41.49;101945.44;4998198;28;20045;-77
2023/05/07 07:27:39;;;;;;;6.22;4.20;;;;;;;21.45;41.41;101945.44;4995194;28;20041;-78
2023/05/07 07:30:06;;;;;;;5.13;3.80;;;;;;;21.41;41.55;101947.59;4989086;28;20034;-79
2023/05/07 07:32:34;;;;;;;5.78;4.45;;;;;;;21.48;41.26;101959.19;4984748;28;20050;-78
2023/05/07 07:35:01;;;;;;;5.78;4.30;;;;;;;21.48;41.39;101961.84;4973373;28;20077;-78
2023/05/07 07:37:27;;;;;;;4.50;3.70;;;;;;;21.47;41.22;101968.13;5006068;28;20034;-78
2023/05/07 07:39:53;;;;;;;5.40;4.32;;;;;;;21.36;41.43;101947.22;4989753;28;20539;-78
2023/05/07 07:42:20;;;;;;;6.03;4.40;;;;;;;21.42;41.83;101957.19;4971267;28;20061;-77
2023/05/07 07:44:46;;;;;;;7.25;4.65;;;;;;;21.48;41.61;101956.53;5002342;28;20038;-77
2023/05/07 07:47:13;;;;;;;5.13;4.45;;;;;;;21.39;41.72;101960.19;5000780;28;20034;-77
2023/05/07 07:49:40;;;;;;;5.20;4.07;;;;;;;21.41;41.42;101955.53;4986424;28;20053;-77
2023/05/07 07:52:08;;;;;;;5.93;4.00;;;;;;;21.46;41.39;101958.53;4985318;28;20265;-78
2023/05/07 07:54:35;;;;;;;5.72;4.43;;;;;;;21.46;41.32;101953.22;5004234;28;20042;-78
2023/05/07 07:57:01;;;;;;;5.57;4.32;;;;;;;21.57;41.01;101963.53;4971219;28;20042;-78
2023/05/07 07:59:29;;;;;;;5.57;3.92;;;;;;;21.53;41.15;101962.16;4974545;28;20041;-78
2023/05/07 08:01:56;;;;;;;6.10;4.38;;;;;;;21.61;41.20;101962.19;4988461;28;20034;-78
2023/05/07 08:04:24;;;;;;;5.05;3.75;;;;;;;21.48;41.16;101945.94;4993351;28;20126;-78
2023/05/07 08:06:50;;;;;;;6.32;4.43;;;;;;;21.57;41.54;101952.09;4985577;28;20036;-79
2023/05/07 08:09:16;;;;;;;5.00;4.00;;;;;;;21.60;41.51;101959.72;4987717;28;20037;-78
2023/05/07 08:11:41;;;;;;;4.03;3.63;;;;;;;21.57;41.28;101968.00;5006822;28;20046;-77
2023/05/07 08:14:08;;;;;;;6.10;4.43;;;;;;;21.57;41.30;101960.03;4986191;28;20068;-78
2023/05/07 08:16:33;;;;;;;7.00;4.40;;;;;;;21.58;41.48;101957.22;4961210;28;20034;-78
2023/05/07 08:19:00;;;;;;;5.50;3.97;;;;;;;21.60;41.43;101959.72;5000457;28;21014;-77
2023/05/07 08:21:26;;;;;;;5.57;4.55;;;;;;;21.53;41.56;101961.34;4981730;28;20041;-77
2023/05/07 08:23:52;;;;;;;6.75;4.53;;;;;;;21.56;41.50;101955.72;4980632;28;20479;-77
2023/05/07 08:26:17;;;;;;;4.80;3.80;;;;;;;21.56;41.59;101963.69;5013845;28;20036;-77
2023/05/07 08:28:43;;;;;;;8.30;4.88;;;;;;;21.45;41.52;101961.34;4998708;28;20038;-77
2023/05/07 08:31:09;;;;;;;5.57;4.20;;;;;;;21.53;41.43;101959.50;4998101;28;20062;-78
2023/05/07 08:33:38;;;;;;;5.53;4.78;;;;;;;21.40;41.36;101935.34;4985943;28;20038;-78
2023/05/07 08:36:04;;;;;;;5.80;4.70;;;;;;;21.36;41.41;101937.50;4996550;28;20057;-78
2023/05/07 08:38:31;;;;;;;5.07;4.35;;;;;;;21.47;41.59;101956.69;4989524;28;20042;-77
2023/05/07 08:40:57;;;;;;;6.82;4.40;;;;;;;21.53;41.48;101967.47;5003232;28;20514;-78
2023/05/07 08:43:26;;;;;;;5.30;4.07;;;;;;;21.49;40.93;101952.06;5018395;28;20038;-77
2023/05/07 08:46:00;;;;;;;5.88;4.68;;;;;;;21.50;41.28;101959.00;4983739;28;20056;-77
2023/05/07 08:48:30;;;;;;;6.03;4.57;;;;;;;21.50;41.30;101949.25;5017360;28;20060;-77
2023/05/07 08:51:12;;;;;;;5.00;4.20;;;;;;;21.58;41.63;101978.44;4999939;28;20600;-76
2023/05/07 08:53:40;;;;;;;5.27;4.10;;;;;;;21.49;41.73;101973.25;5002078;28;20440;-77
2023/05/07 08:56:08;;;;;;;5.90;4.28;;;;;;;21.42;41.47;101951.91;4998492;28;20030;-77
2023/05/07 08:58:35;;;;;;;5.95;4.47;;;;;;;21.50;41.82;101972.28;5000561;28;20126;-77
2023/05/07 09:01:05;;;;;;;6.07;4.82;;;;;;;21.45;41.81;101975.41;5015216;28;20045;-77
2023/05/07 09:03:31;;;;;;;4.75;4.00;;;;;;;21.49;41.51;101973.25;5016135;28;20045;-78
2023/05/07 09:05:58;;;;;;;6.80;4.75;;;;;;;21.42;41.80;101955.38;5000478;28;20042;-77
2023/05/07 09:08:29;;;;;;;5.30;4.35;;;;;;;21.51;41.78;101972.09;4999483;28;20064;-78
2023/05/07 09:10:58;;;;;;;6.47;4.45;;;;;;;21.40;41.51;101956.53;5000037;28;20042;-78
2023/05/07 09:13:24;;;;;;;6.30;4.50;;;;;;;21.52;41.62;101965.81;4997722;28;20045;-80
2023/05/07 09:15:50;;;;;;;5.95;4.40;;;;;;;21.51;41.77;101974.75;4998971;28;20038;-78
2023/05/07 09:18:16;;;;;;;5.10;4.28;;;;;;;21.44;41.74;101957.84;5019009;28;20500;-78
2023/05/07 09:20:42;;;;;;;6.38;4.70;;;;;;;21.54;41.67;101969.13;5011782;28;20030;-78
2023/05/07 09:23:08;;;;;;;4.28;3.80;;;;;;;21.51;41.92;101968.63;5002313;28;20447;-78
2023/05/07 09:25:36;;;;;;;6.32;4.63;;;;;;;21.46;41.83;101973.59;5014252;28;20100;-77
2023/05/07 09:28:10;;;;;;;6.10;4.95;;;;;;;21.47;41.50;101951.41;4986711;28;20156;-77
2023/05/07 09:30:36;;;;;;;5.43;4.00;;;;;;;21.40;41.75;101953.88;5000030;28;20037;-78
2023/05/07 09:33:04;;;;;;;5.10;4.32;;;;;;;21.48;41.86;101972.44;5002958;28;20040;-78
2023/05/07 09:35:32;;;;;;;6.40;4.05;;;;;;;21.49;41.87;101965.31;4998400;28;20144;-78
2023/05/07 09:38:03;;;;;;;4.72;4.20;;;;;;;21.28;41.52;101937.47;4995565;28;20034;-78
2023/05/07 09:40:31;;;;;;;4.82;4.10;;;;;;;21.48;42.00;101967.13;5014242;28;20037;-78
2023/05/07 09:43:12;;;;;;;6.60;5.32;;;;;;;21.40;41.71;101953.88;4997949;28;20070;-78
2023/05/07 09:45:42;;;;;;;5.85;4.45;;;;;;;21.39;41.63;101945.09;5018187;28;20424;-80
2023/05/07 09:48:09;;;;;;;6.70;4.15;;;;;;;21.39;41.60;101953.06;5003430;28;20048;-80
2023/05/07 09:50:38;;;;;;;6.88;4.65;;;;;;;21.45;41.82;101962.16;5016058;28;20030;-78
2023/05/07 09:53:04;;;;;;;5.75;4.60;;;;;;;21.44;41.96;101962.34;5010176;28;20026;-78
2023/05/07 09:55:30;;;;;;;5.85;4.40;;;;;;;21.50;41.38;101959.84;4991092;28;20042;-78
2023/05/07 09:57:58;;;;;;;5.60;4.60;;;;;;;21.53;41.62;101964.81;4999859;28;20041;-78
2023/05/07 10:00:28;;;;;;;5.22;4.25;;;;;;;21.50;41.76;101964.31;4998678;28;20041;-78
2023/05/07 10:03:03;;;;;;;6.07;4.68;;;;;;;21.50;41.72;101962.50;5014201;28;20057;-78
2023/05/07 10:05:47;;;;;;;6.97;4.70;;;;;;;21.54;41.83;101974.41;4983589;28;20105;-77
2023/05/07 10:08:16;;;;;;;5.55;4.20;;;;;;;21.58;41.75;101967.81;4984730;28;20102;-78
2023/05/07 10:10:42;;;;;;;6.00;4.80;;;;;;;21.62;41.63;101953.25;5002134;28;20057;-77
2023/05/07 10:13:12;;;;;;;6.63;4.93;;;;;;;21.71;41.59;101967.31;5010621;28;20038;-78
2023/05/07 10:15:42;;;;;;;6.28;4.38;;;;;;;21.69;41.53;101958.72;4999138;28;20034;-78
2023/05/07 10:18:08;;;;;;;5.47;3.83;;;;;;;21.77;41.09;101976.47;4997800;28;20046;-78
2023/05/07 10:20:36;;;;;;;5.80;4.40;;;;;;;21.66;41.36;101964.34;5017104;28;20476;-78
2023/05/07 10:23:05;;;;;;;5.93;4.27;;;;;;;21.75;41.52;101987.22;5002386;28;20527;-77
2023/05/07 10:25:37;;;;;;;6.57;4.97;;;;;;;21.39;42.58;101952.22;4987985;28;21276;-79
2023/05/07 10:28:12;;;;;;;5.65;4.38;;;;;;;21.75;41.64;101986.41;5012379;28;20034;-79
2023/05/07 10:31:26;;;;;;;5.53;4.50;;;;;;;21.77;41.51;101981.75;5013063;28;20119;-79
2023/05/07 10:33:54;;;;;;;5.97;4.78;;;;;;;21.75;41.25;101973.16;4999231;28;20061;-79
2023/05/07 10:36:22;;;;;;;;;;;;;;;21.98;40.82;101982.09;5001658;28;20026;-80
2023/05/07 10:38:51;;;;;;;5.03;4.40;;;;;;;21.94;40.56;101959.56;4997784;28;19917;-79
2023/05/07 10:41:18;;;;;;;5.70;4.70;;;;;;;22.06;40.69;101976.81;4998424;28;20389;-79
2023/05/07 10:43:45;;;;;;;6.32;4.53;;;;;;;22.26;40.43;101978.13;4985066;28;20046;-79
2023/05/07 10:46:24;;;;;;;6.53;4.30;;;;;;;22.44;39.83;101985.91;4984651;28;20038;-79
2023/05/07 10:49:08;;;;;;;4.45;3.90;;;;;;;22.49;40.10;101986.22;4987163;28;20042;-78
2023/05/07 10:51:40;;;;;;;6.18;3.65;;;;;;;22.60;39.52;101980.53;4997358;28;20042;-79
2023/05/07 10:54:26;;;;;;;4.32;3.55;;;;;;;22.66;39.16;101979.03;4972092;28;20045;-79
2023/05/07 10:57:33;;;;;;;4.05;3.65;;;;;;;22.70;39.31;101982.16;4987728;28;20526;-79
2023/05/07 11:00:24;;;;;;;5.80;4.28;;;;;;;22.78;39.13;101990.94;4983777;28;20049;-79
2023/05/07 11:02:59;;;;;;;5.60;3.95;;;;;;;22.91;38.81;101985.94;4981818;28;20034;-79
2023/05/07 11:05:30;;;;;;;4.88;4.00;;;;;;;22.95;38.86;101982.94;5002006;28;20475;-79
2023/05/07 11:08:09;;;;;;;5.93;4.40;;;;;;;23.03;38.69;101969.63;4996463;28;20038;-79
2023/05/07 11:10:52;;;;;;;4.53;4.00;;;;;;;22.87;38.70;101967.88;4981412;28;20061;-78
2023/05/07 11:13:46;;;;;;;4.45;3.63;;;;;;;23.01;38.65;101966.31;4986703;28;20443;-79
2023/05/07 11:16:47;;;;;;;5.80;3.95;;;;;;;22.97;38.82;101962.34;4985424;28;20105;-79
2023/05/07 11:19:49;;;;;;;4.25;3.78;;;;;;;23.04;38.44;101969.47;5015864;28;20520;-78
2023/05/07 11:22:32;;;;;;;5.40;4.00;;;;;;;23.04;38.67;101973.94;4977681;28;20065;-78
2023/05/07 11:25:08;;;;;;;4.45;3.70;;;;;;;22.84;38.83;101963.75;4990572;28;20070;-78
2023/05/07 11:27:35;;;;;;;4.35;3.90;;;;;;;23.06;38.48;101966.63;5003256;28;20042;-78
2023/05/07 11:30:01;;;;;;;4.53;3.75;;;;;;;22.97;38.62;101951.72;4993878;28;20592;-78